KGLS/GLS METAR and TAF weather

Enter ICAO airport designator
Station Type Date Time Source
KGLS METAR 2020/10/29 15:52 UTC NOAA

KGLS 291552Z 31018G27KT 10SM CLR 16/05 A3008 RMK AO2 PK WND 30027/1552 SLP186 T01560050


Station Type Date Time Source
KGLS Decoded METAR 2020/10/29 15:52 UTC NOAA

SCHOLES FIELD, TX, United States (KGLS) 29-16N 094-52W 6M
Oct 29, 2020 - 11:52 AM EDT / 2020.10.29 1552 UTC
Wind: from the NW (310 degrees) at 21 MPH (18 KT) gusting to 31 MPH (27 KT):0
Visibility: 10 mile(s):0
Sky conditions: clear
Temperature: 60.1 F (15.6 C)
Dew Point: 41.0 F (5.0 C)
Relative Humidity: 49%
Pressure (altimeter): 30.08 in. Hg (1018 hPa)
ob: KGLS 291552Z 31018G27KT 10SM CLR 16/05 A3008 RMK AO2 PK WND 30027/1552 SLP186 T01560050
cycle: 16

Station Type Date Time Source
KGLS TAF 2020/10/29 12:24 UTC NOAA

TAF KGLS 291120Z 2912/3012 29017G27KT P6SM SKC
FM292100 31020G30KT P6SM FEW035
FM300300 36015G25KT P6SM SCT025
FM300600 35016KT P6SM BKN022

Example: see airport list